Time;durP1;ratioP1;P1;durP2;ratioP2;P2;SDS_P1;SDS_P2;PMS_P1;PMS_P2;Temp;Humidity;BMP_temperature;BMP_pressure;BME280_temperature;BME280_humidity;BME280_pressure;Samples;Min_cycle;Max_cycle;Signal;HPM_P1;HPM_P2
2022/05/03 00:00:41;;;;;;;5.45;3.97;;;10.70;99.90;;;;;;5116362;27;20180;-60
2022/05/03 00:03:25;;;;;;;4.68;3.92;;;10.80;99.90;;;;;;5115984;28;20208;-60
2022/05/03 00:06:07;;;;;;;5.50;3.72;;;10.80;99.90;;;;;;5116028;28;20626;-61
2022/05/03 00:09:06;;;;;;;4.65;3.97;;;10.70;99.90;;;;;;5116311;28;20161;-60
2022/05/03 00:11:55;;;;;;;4.40;3.65;;;10.80;99.90;;;;;;5082174;28;20208;-60
2022/05/03 00:14:37;;;;;;;4.20;3.47;;;10.70;99.90;;;;;;5115903;28;20635;-61
2022/05/03 00:17:04;;;;;;;5.03;3.83;;;10.70;99.90;;;;;;5115840;28;20195;-61
2022/05/03 00:19:30;;;;;;;4.03;3.63;;;10.60;99.90;;;;;;5114692;28;20185;-61
2022/05/03 00:21:57;;;;;;;4.07;3.67;;;10.70;99.90;;;;;;5115762;28;20224;-61
2022/05/03 00:24:24;;;;;;;4.35;3.65;;;10.60;99.90;;;;;;5116176;28;20161;-60
2022/05/03 00:26:50;;;;;;;4.85;3.47;;;10.70;99.90;;;;;;5115684;28;20642;-61
2022/05/03 00:29:17;;;;;;;4.22;3.63;;;10.70;99.90;;;;;;5115619;28;20174;-61
2022/05/03 00:31:44;;;;;;;4.43;3.90;;;10.70;99.90;;;;;;5115735;28;20635;-61
2022/05/03 00:34:11;;;;;;;5.57;3.85;;;10.60;99.90;;;;;;5115845;27;20188;-61
2022/05/03 00:36:36;;;;;;;5.43;4.00;;;10.60;99.90;;;;;;5115615;28;20169;-61
2022/05/03 00:39:02;;;;;;;4.90;3.72;;;10.60;99.90;;;;;;5115518;28;20195;-61
2022/05/03 00:41:36;;;;;;;5.88;4.20;;;10.50;99.90;;;;;;5115401;28;20181;-61
2022/05/03 00:47:19;;;;;;;4.63;3.58;;;10.40;99.90;;;;;;5115620;28;20180;-60
2022/05/03 00:49:49;;;;;;;4.60;3.55;;;10.40;99.90;;;;;;5115117;28;20169;-60
2022/05/03 00:52:23;;;;;;;5.38;3.80;;;10.30;99.90;;;;;;5115166;28;20645;-61
2022/05/03 00:55:14;;;;;;;5.28;3.95;;;10.40;99.90;;;;;;5115458;28;20188;-61
2022/05/03 00:57:50;;;;;;;4.57;3.80;;;10.40;99.90;;;;;;5115498;28;20218;-61
2022/05/03 01:00:16;;;;;;;4.47;3.55;;;10.30;99.90;;;;;;5115027;28;20256;-60
2022/05/03 01:02:59;;;;;;;3.58;3.28;;;10.30;99.90;;;;;;5114905;28;20197;-60
2022/05/03 01:06:09;;;;;;;5.03;3.63;;;10.20;99.90;;;;;;5115041;28;20181;-60
2022/05/03 01:08:44;;;;;;;4.18;3.40;;;10.20;99.90;;;;;;5114910;28;20572;-61
2022/05/03 01:11:22;;;;;;;4.13;3.53;;;10.20;99.90;;;;;;5114698;28;20184;-60
2022/05/03 01:14:01;;;;;;;4.50;3.20;;;10.20;99.90;;;;;;5114966;28;20177;-60
2022/05/03 01:17:04;;;;;;;5.45;3.58;;;10.20;99.90;;;;;;5114690;28;20598;-60
2022/05/03 01:19:54;;;;;;;4.47;3.53;;;10.20;99.90;;;;;;5051856;28;20183;-61
2022/05/03 01:22:32;;;;;;;3.80;3.05;;;10.20;99.90;;;;;;5112542;28;20188;-60
2022/05/03 01:25:09;;;;;;;3.35;3.00;;;10.20;99.90;;;;;;5114691;28;20192;-60
2022/05/03 01:27:59;;;;;;;3.67;3.17;;;10.20;99.90;;;;;;5113204;28;20173;-60
2022/05/03 01:30:30;;;;;;;3.78;2.92;;;10.20;99.90;;;;;;5114600;28;20176;-60
2022/05/03 01:33:06;;;;;;;4.20;3.50;;;10.00;99.90;;;;;;5114411;28;20205;-60
2022/05/03 01:35:39;;;;;;;5.40;3.42;;;9.90;99.90;;;;;;5114328;28;20173;-60
2022/05/03 01:38:22;;;;;;;4.25;3.47;;;10.00;99.90;;;;;;5114651;28;20176;-60
2022/05/03 01:41:11;;;;;;;4.90;3.97;;;10.00;99.90;;;;;;5114476;28;20169;-60
2022/05/03 01:44:05;;;;;;;3.80;3.38;;;10.00;99.90;;;;;;5114390;28;20208;-60
2022/05/03 01:46:35;;;;;;;4.22;3.38;;;10.00;99.90;;;;;;5114557;28;20196;-60
2022/05/03 01:52:46;;;;;;;4.43;4.03;;;9.90;99.90;;;;;;5114032;28;20692;-60
2022/05/03 01:55:33;;;;;;;4.60;3.75;;;9.60;99.90;;;;;;5114222;28;20176;-60
2022/05/03 01:58:13;;;;;;;5.28;3.60;;;9.50;99.90;;;;;;5114086;28;20173;-60
2022/05/03 02:00:44;;;;;;;5.30;4.38;;;9.50;99.90;;;;;;5113636;28;20157;-60
2022/05/03 02:03:28;;;;;;;4.72;4.00;;;9.50;99.90;;;;;;5114162;28;20694;-61
2022/05/03 02:06:09;;;;;;;4.88;4.07;;;9.40;99.90;;;;;;5114374;28;20654;-61
2022/05/03 02:08:47;;;;;;;4.95;4.40;;;9.50;99.90;;;;;;5113986;28;20545;-61
2022/05/03 02:11:43;;;;;;;5.38;4.38;;;9.60;99.90;;;;;;5112403;28;20736;-60
2022/05/03 02:17:13;;;;;;;5.93;4.40;;;9.60;99.90;;;;;;5114034;28;20188;-60
2022/05/03 02:20:06;;;;;;;4.55;3.95;;;9.60;99.90;;;;;;5113669;28;20173;-60
2022/05/03 02:22:40;;;;;;;5.43;4.57;;;9.50;99.90;;;;;;5113807;28;20208;-60
2022/05/03 02:25:24;;;;;;;5.43;4.70;;;9.50;99.90;;;;;;5113821;28;20169;-60
2022/05/03 02:28:17;;;;;;;5.57;4.30;;;9.50;99.90;;;;;;5113634;28;20698;-60
2022/05/03 02:30:47;;;;;;;5.25;4.43;;;9.40;99.90;;;;;;5113782;28;20166;-60
2022/05/03 02:33:33;;;;;;;5.22;4.30;;;9.40;99.90;;;;;;5113583;28;20197;-60
2022/05/03 02:36:00;;;;;;;6.38;5.00;;;9.40;99.90;;;;;;5113696;28;20194;-60
2022/05/03 02:38:36;;;;;;;6.10;4.53;;;9.40;99.90;;;;;;5113456;28;20701;-60
2022/05/03 02:41:03;;;;;;;6.63;4.45;;;9.40;99.90;;;;;;5113758;28;20172;-60
2022/05/03 02:43:31;;;;;;;5.65;5.05;;;9.20;99.90;;;;;;5113648;28;20530;-60
2022/05/03 02:46:19;;;;;;;6.22;4.80;;;9.00;99.90;;;;;;5113551;28;20260;-60
2022/05/03 02:48:55;;;;;;;5.85;4.30;;;8.90;99.90;;;;;;5113362;28;20303;-60
2022/05/03 02:51:27;;;;;;;5.75;4.97;;;8.80;99.90;;;;;;5113457;28;20289;-60
2022/05/03 02:54:02;;;;;;;7.93;5.57;;;8.90;99.90;;;;;;5113528;28;20165;-60
2022/05/03 02:57:06;;;;;;;8.88;5.60;;;8.90;99.90;;;;;;5112198;28;20179;-60
2022/05/03 03:03:18;;;;;;;6.32;5.03;;;8.80;99.90;;;;;;5113602;28;20206;-60
2022/05/03 03:05:56;;;;;;;8.07;5.85;;;8.80;99.90;;;;;;5113554;28;20189;-60
2022/05/03 03:08:23;;;;;;;7.10;5.47;;;8.80;99.90;;;;;;5113681;28;20178;-60
2022/05/03 03:10:57;;;;;;;9.52;5.90;;;8.70;99.90;;;;;;5112613;28;20188;-60
2022/05/03 03:13:47;;;;;;;6.72;5.50;;;8.70;99.90;;;;;;5117147;28;20625;-60
2022/05/03 03:16:14;;;;;;;7.47;5.97;;;8.80;99.90;;;;;;5117221;28;20179;-60
2022/05/03 03:18:47;;;;;;;7.13;5.43;;;8.80;99.90;;;;;;5117166;28;20201;-60
2022/05/03 03:21:14;;;;;;;7.85;5.57;;;8.90;99.90;;;;;;5117064;28;20185;-60
2022/05/03 03:23:41;;;;;;;9.15;5.72;;;8.90;99.90;;;;;;5116992;28;20177;-60
2022/05/03 03:26:09;;;;;;;6.35;5.20;;;8.90;99.90;;;;;;5116853;28;20181;-60
2022/05/03 03:28:37;;;;;;;7.65;5.85;;;8.80;99.90;;;;;;5117379;28;20204;-60
2022/05/03 03:31:05;;;;;;;8.32;6.03;;;8.70;99.90;;;;;;5116864;28;20162;-60
2022/05/03 03:33:34;;;;;;;9.25;6.05;;;8.50;99.90;;;;;;5115380;28;20185;-60
2022/05/03 03:36:03;;;;;;;10.27;6.30;;;8.50;99.90;;;;;;5116748;28;20162;-60
2022/05/03 03:38:36;;;;;;;8.10;5.72;;;8.40;99.90;;;;;;5116593;28;20223;-60
2022/05/03 03:41:03;;;;;;;9.63;6.53;;;8.40;99.90;;;;;;5116911;28;20165;-60
2022/05/03 03:43:29;;;;;;;9.25;6.55;;;8.50;99.90;;;;;;5116626;28;20173;-60
2022/05/03 03:45:55;;;;;;;8.15;6.35;;;8.40;99.90;;;;;;5116658;28;20173;-60
2022/05/03 03:48:20;;;;;;;8.07;6.28;;;8.40;99.90;;;;;;5116578;28;20184;-60
2022/05/03 03:50:47;;;;;;;8.00;6.47;;;8.30;99.90;;;;;;5115221;28;20173;-60
2022/05/03 03:53:15;;;;;;;9.82;7.35;;;8.30;99.90;;;;;;5115081;28;20228;-60
2022/05/03 03:55:42;;;;;;;8.48;6.55;;;8.30;99.90;;;;;;5116203;28;20588;-60
2022/05/03 03:58:08;;;;;;;9.98;7.25;;;8.30;99.90;;;;;;5116468;28;20176;-60
2022/05/03 04:00:34;;;;;;;10.48;7.15;;;8.20;99.90;;;;;;5116246;28;20173;-60
2022/05/03 04:03:01;;;;;;;9.20;6.60;;;8.30;99.90;;;;;;5116312;28;20173;-60
2022/05/03 04:05:28;;;;;;;10.18;8.13;;;8.40;99.90;;;;;;5116353;28;20227;-60
2022/05/03 04:07:54;;;;;;;11.40;7.55;;;8.50;99.90;;;;;;5114698;28;20231;-59
2022/05/03 04:10:20;;;;;;;10.82;7.88;;;8.50;99.90;;;;;;5114958;28;20571;-60
2022/05/03 04:12:46;;;;;;;10.82;7.88;;;8.40;99.90;;;;;;5115813;28;20749;-60
2022/05/03 04:15:12;;;;;;;10.80;7.60;;;8.40;99.90;;;;;;5116179;28;20177;-60
2022/05/03 04:17:37;;;;;;;13.10;8.25;;;8.40;99.90;;;;;;5115907;28;20618;-60
2022/05/03 04:20:04;;;;;;;10.95;8.10;;;8.30;99.90;;;;;;5115854;28;20182;-60
2022/05/03 04:22:31;;;;;;;10.15;7.68;;;8.30;99.90;;;;;;5115106;28;20199;-60
2022/05/03 04:24:58;;;;;;;12.07;7.63;;;8.30;99.90;;;;;;5116005;28;20246;-60
2022/05/03 04:27:26;;;;;;;10.98;7.50;;;8.30;99.90;;;;;;5116186;28;20173;-60
2022/05/03 04:29:52;;;;;;;10.43;7.78;;;8.30;99.90;;;;;;5115708;28;20184;-60
2022/05/03 04:32:18;;;;;;;10.13;7.80;;;8.20;99.90;;;;;;5115611;28;20201;-60
2022/05/03 04:34:44;;;;;;;10.50;7.68;;;8.20;99.90;;;;;;5115495;28;20261;-60
2022/05/03 04:37:10;;;;;;;10.90;7.43;;;8.20;99.90;;;;;;5114266;28;20240;-60
2022/05/03 04:39:36;;;;;;;10.65;7.45;;;8.20;99.90;;;;;;5114421;28;20181;-60
2022/05/03 04:42:01;;;;;;;11.40;7.90;;;8.20;99.90;;;;;;5115437;28;20260;-60
2022/05/03 04:44:27;;;;;;;11.13;7.72;;;8.30;99.90;;;;;;5114284;28;20234;-60
2022/05/03 04:46:53;;;;;;;10.30;7.93;;;8.30;99.90;;;;;;5115343;28;20170;-60
2022/05/03 04:49:19;;;;;;;12.38;8.82;;;8.30;99.90;;;;;;5115334;28;20165;-60
2022/05/03 04:51:44;;;;;;;12.90;9.02;;;8.40;99.90;;;;;;5115029;28;20531;-60
2022/05/03 04:54:10;;;;;;;12.02;8.57;;;8.40;99.90;;;;;;5115289;28;20253;-60
2022/05/03 04:56:36;;;;;;;12.95;8.90;;;8.40;99.90;;;;;;5114045;28;20276;-60
2022/05/03 04:59:03;;;;;;;11.98;8.63;;;8.50;99.90;;;;;;5115273;28;20634;-60
2022/05/03 05:01:29;;;;;;;14.82;8.82;;;8.60;99.90;;;;;;5115013;28;20208;-59
2022/05/03 05:03:55;;;;;;;11.93;8.55;;;8.60;99.90;;;;;;5113567;28;20209;-59
2022/05/03 05:06:21;;;;;;;12.63;8.25;;;8.60;99.90;;;;;;5112653;28;20207;-60
2022/05/03 05:08:47;;;;;;;12.90;9.00;;;8.70;99.90;;;;;;5114628;28;20165;-60
2022/05/03 05:11:13;;;;;;;11.20;8.05;;;8.80;99.90;;;;;;5114944;28;20231;-60
2022/05/03 05:13:39;;;;;;;12.95;9.23;;;8.90;99.90;;;;;;5114927;28;20212;-60
2022/05/03 05:16:06;;;;;;;11.60;8.80;;;8.90;99.90;;;;;;5114953;28;20634;-60
2022/05/03 05:18:32;;;;;;;11.82;8.30;;;9.00;99.90;;;;;;5114741;28;20181;-60
2022/05/03 05:20:57;;;;;;;11.13;7.85;;;9.10;99.90;;;;;;5114631;28;20520;-60
2022/05/03 05:23:23;;;;;;;11.68;7.97;;;9.20;99.90;;;;;;5114910;28;20582;-60
2022/05/03 05:25:50;;;;;;;11.45;8.30;;;9.30;99.90;;;;;;5114537;28;20279;-60
2022/05/03 05:28:17;;;;;;;10.70;7.53;;;9.40;99.90;;;;;;5114714;28;20177;-60
2022/05/03 05:30:43;;;;;;;13.05;8.18;;;9.50;99.90;;;;;;5114629;28;20452;-60
2022/05/03 05:33:09;;;;;;;10.63;7.70;;;9.60;99.90;;;;;;5114301;28;20666;-60
2022/05/03 05:35:35;;;;;;;11.80;7.95;;;9.80;99.90;;;;;;5113262;28;20185;-60
2022/05/03 05:38:01;;;;;;;11.20;8.20;;;9.90;99.90;;;;;;5114461;28;20177;-60
2022/05/03 05:40:27;;;;;;;13.32;8.38;;;10.00;99.90;;;;;;5114686;28;20176;-60
2022/05/03 05:42:52;;;;;;;13.38;9.05;;;10.20;99.90;;;;;;5113045;28;20534;-60
2022/05/03 05:45:18;;;;;;;11.27;8.45;;;10.20;99.90;;;;;;5114174;28;20173;-60
2022/05/03 05:47:44;;;;;;;12.48;8.15;;;10.30;99.90;;;;;;5114122;28;20223;-60
2022/05/03 05:50:11;;;;;;;12.65;9.10;;;10.40;99.90;;;;;;5114056;28;20180;-60
2022/05/03 05:55:21;;;;;;;13.80;9.48;;;10.70;99.90;;;;;;5114436;28;20576;-60
2022/05/03 05:57:47;;;;;;;16.45;9.88;;;10.80;99.90;;;;;;5114101;28;20173;-60
2022/05/03 06:00:13;;;;;;;14.48;9.88;;;10.80;99.90;;;;;;5112624;28;20192;-60
2022/05/03 06:02:39;;;;;;;13.70;9.60;;;10.90;99.90;;;;;;5113842;28;20183;-60
2022/05/03 06:05:06;;;;;;;13.65;9.35;;;11.00;99.90;;;;;;5114170;28;20284;-60
2022/05/03 06:07:32;;;;;;;13.32;9.45;;;11.10;99.90;;;;;;5113923;28;20173;-60
2022/05/03 06:09:57;;;;;;;14.02;9.38;;;11.30;99.90;;;;;;5113780;28;20176;-60
2022/05/03 06:12:23;;;;;;;13.70;9.23;;;11.40;99.90;;;;;;5113845;28;20226;-60
2022/05/03 06:14:48;;;;;;;14.20;9.38;;;11.70;99.90;;;;;;5113694;28;20245;-60
2022/05/03 06:17:14;;;;;;;13.10;8.40;;;11.90;99.90;;;;;;5113615;28;20170;-60
2022/05/03 06:19:40;;;;;;;12.13;7.95;;;12.00;99.90;;;;;;5113994;28;20181;-60
2022/05/03 06:22:05;;;;;;;13.48;9.15;;;12.00;99.90;;;;;;5113899;28;20173;-60
2022/05/03 06:24:31;;;;;;;13.13;8.93;;;12.10;99.90;;;;;;5113797;28;20173;-60
2022/05/03 06:26:58;;;;;;;12.80;8.63;;;12.00;99.90;;;;;;5113691;28;20190;-60
2022/05/03 06:29:24;;;;;;;12.13;7.97;;;12.10;99.90;;;;;;5113686;28;20222;-60
2022/05/03 06:31:50;;;;;;;12.02;8.52;;;12.10;99.90;;;;;;5113490;28;20229;-60
2022/05/03 06:34:16;;;;;;;13.65;8.55;;;12.10;99.90;;;;;;5113606;28;20181;-59
2022/05/03 06:36:42;;;;;;;13.65;8.82;;;12.10;99.90;;;;;;5113605;28;20177;-60
2022/05/03 06:39:08;;;;;;;11.38;8.25;;;12.10;99.90;;;;;;5113475;28;20244;-59
2022/05/03 06:41:34;;;;;;;12.57;7.97;;;12.30;99.90;;;;;;5113554;28;20577;-60
2022/05/03 06:44:00;;;;;;;11.70;7.63;;;12.30;99.90;;;;;;5113413;28;20572;-60
2022/05/03 06:46:26;;;;;;;10.15;7.20;;;12.40;99.90;;;;;;5115339;28;20165;-60
2022/05/03 06:48:51;;;;;;;9.80;7.10;;;12.40;99.90;;;;;;5117821;28;20210;-60
2022/05/03 06:51:17;;;;;;;10.77;7.28;;;12.40;99.90;;;;;;5117598;28;20201;-60
2022/05/03 06:53:43;;;;;;;9.20;6.65;;;12.40;99.90;;;;;;5117639;28;20503;-59
2022/05/03 06:56:08;;;;;;;11.00;6.85;;;12.60;99.90;;;;;;5117592;28;20223;-60
2022/05/03 06:58:34;;;;;;;11.90;6.90;;;12.80;99.90;;;;;;5117387;28;20650;-59
2022/05/03 07:01:14;;;;;;;11.18;7.60;;;12.90;99.90;;;;;;5117407;28;20206;-60
2022/05/03 07:03:41;;;;;;;10.10;7.50;;;12.90;99.90;;;;;;5117405;28;20215;-60
2022/05/03 07:06:08;;;;;;;9.10;6.65;;;13.10;99.90;;;;;;5117449;28;20173;-60
2022/05/03 07:08:34;;;;;;;10.02;7.05;;;13.20;99.90;;;;;;5117363;28;20246;-60
2022/05/03 07:11:00;;;;;;;11.50;7.28;;;13.40;99.90;;;;;;5117282;28;20169;-60
2022/05/03 07:13:26;;;;;;;11.00;7.13;;;13.60;99.90;;;;;;5117203;28;20538;-60
2022/05/03 07:15:57;;;;;;;10.80;6.50;;;13.50;99.90;;;;;;5117339;28;20177;-60
2022/05/03 07:23:52;;;;;;;10.70;6.90;;;13.90;99.90;;;;;;5117172;28;20204;-60
2022/05/03 07:26:18;;;;;;;9.70;6.55;;;14.00;99.90;;;;;;5116927;28;20166;-60
2022/05/03 07:28:48;;;;;;;9.10;5.38;;;14.20;99.90;;;;;;5116944;28;20557;-60
2022/05/03 07:31:15;;;;;;;7.55;5.57;;;14.20;99.90;;;;;;5116800;28;20646;-60
2022/05/03 07:33:40;;;;;;;8.88;5.65;;;14.00;99.90;;;;;;5116948;28;20695;-60
2022/05/03 07:36:06;;;;;;;6.90;5.38;;;14.10;99.90;;;;;;5116781;28;20170;-60
2022/05/03 07:38:32;;;;;;;7.68;5.90;;;14.10;99.90;;;;;;5116625;28;20205;-60
2022/05/03 07:40:58;;;;;;;8.32;5.85;;;14.10;99.90;;;;;;5116883;28;20180;-59
2022/05/03 07:43:23;;;;;;;7.55;5.40;;;14.40;99.90;;;;;;5116755;28;20204;-60
2022/05/03 07:45:49;;;;;;;7.18;5.28;;;14.50;99.90;;;;;;5115550;28;20197;-60
2022/05/03 07:48:15;;;;;;;8.75;5.70;;;14.50;99.90;;;;;;5116532;28;20177;-60
2022/05/03 07:50:41;;;;;;;8.65;5.25;;;14.50;99.90;;;;;;5116451;28;20619;-60
2022/05/03 07:53:06;;;;;;;7.18;5.30;;;14.50;99.90;;;;;;5115286;28;20205;-60
2022/05/03 07:55:32;;;;;;;7.15;5.38;;;14.50;99.90;;;;;;5116339;28;20526;-60
2022/05/03 07:57:58;;;;;;;7.07;5.20;;;14.50;99.90;;;;;;5115138;28;20174;-60
2022/05/03 08:00:24;;;;;;;6.63;5.00;;;14.60;99.90;;;;;;5116417;28;20311;-60
2022/05/03 08:02:49;;;;;;;6.78;4.38;;;14.80;99.90;;;;;;5116264;28;20180;-60
2022/05/03 08:05:16;;;;;;;6.38;4.20;;;15.00;99.90;;;;;;5114959;28;20204;-60
2022/05/03 08:07:42;;;;;;;7.05;4.68;;;15.00;99.90;;;;;;5116421;28;20269;-60
2022/05/03 08:10:08;;;;;;;5.15;4.00;;;15.00;99.90;;;;;;5115076;28;20587;-60
2022/05/03 08:12:35;;;;;;;4.63;3.63;;;15.00;99.90;;;;;;5116013;28;20561;-60
2022/05/03 08:15:01;;;;;;;6.32;4.47;;;15.10;99.90;;;;;;5116040;28;20519;-60
2022/05/03 08:17:28;;;;;;;4.63;3.53;;;15.20;99.90;;;;;;5115930;28;20184;-60
2022/05/03 08:19:54;;;;;;;5.03;3.72;;;15.40;99.90;;;;;;5115732;28;20264;-60
2022/05/03 08:22:20;;;;;;;4.63;3.65;;;15.60;99.90;;;;;;5115930;28;20185;-60
2022/05/03 08:24:46;;;;;;;4.65;3.53;;;15.60;99.90;;;;;;5115989;28;20688;-60
2022/05/03 08:27:12;;;;;;;5.95;3.92;;;15.70;99.90;;;;;;5115711;28;20177;-60
2022/05/03 08:29:38;;;;;;;5.93;4.03;;;15.70;99.90;;;;;;5115789;28;20177;-61
2022/05/03 08:32:04;;;;;;;5.97;3.80;;;15.80;99.90;;;;;;5115574;28;20192;-60
2022/05/03 08:34:31;;;;;;;6.28;3.78;;;16.10;99.90;;;;;;5115700;28;20277;-60
2022/05/03 08:42:28;;;;;;;5.82;3.78;;;16.30;99.80;;;;;;5115697;28;20276;-60
2022/05/03 08:44:54;;;;;;;6.20;4.03;;;16.50;99.90;;;;;;5115337;28;20238;-60
2022/05/03 08:47:20;;;;;;;4.85;3.95;;;16.50;99.90;;;;;;5115590;28;20614;-61
2022/05/03 08:50:07;;;;;;;7.32;4.78;;;16.70;99.90;;;;;;5115515;28;20184;-60
2022/05/03 08:52:48;;;;;;;6.57;4.50;;;16.60;99.90;;;;;;5115460;28;20196;-60
2022/05/03 08:55:14;;;;;;;6.20;4.45;;;16.60;99.90;;;;;;5115141;28;20177;-60
2022/05/03 08:57:44;;;;;;;6.20;4.22;;;16.80;99.90;;;;;;5115366;28;20187;-60
2022/05/03 09:00:12;;;;;;;6.57;4.65;;;16.90;99.90;;;;;;5115450;28;20180;-60
2022/05/03 09:02:42;;;;;;;6.90;4.72;;;16.70;99.90;;;;;;5115226;28;20176;-60
2022/05/03 09:05:08;;;;;;;6.90;4.72;;;16.20;99.90;;;;;;5115167;28;20228;-60
2022/05/03 09:07:36;;;;;;;6.07;3.75;;;16.10;99.90;;;;;;5114895;28;20181;-60
2022/05/03 09:10:25;;;;;;;6.53;4.28;;;16.30;99.90;;;;;;5114624;28;20557;-60
2022/05/03 09:12:51;;;;;;;6.55;4.88;;;16.50;99.90;;;;;;5114855;28;20229;-61
2022/05/03 09:15:32;;;;;;;6.45;4.75;;;16.50;99.90;;;;;;5114864;28;20193;-60
2022/05/03 09:17:59;;;;;;;5.95;4.13;;;16.80;99.90;;;;;;5114744;28;20175;-60
2022/05/03 09:26:13;;;;;;;6.38;4.68;;;16.90;99.90;;;;;;5114580;28;20385;-60
2022/05/03 09:28:52;;;;;;;5.68;3.95;;;17.20;99.90;;;;;;5114915;28;20230;-61
2022/05/03 09:31:42;;;;;;;6.03;4.43;;;17.50;99.90;;;;;;5114713;28;20172;-60
2022/05/03 09:34:19;;;;;;;5.43;4.13;;;17.40;99.10;;;;;;5114398;28;20310;-60
2022/05/03 09:36:45;;;;;;;7.03;4.97;;;17.10;99.70;;;;;;5114459;28;20293;-60
2022/05/03 09:39:25;;;;;;;5.53;4.28;;;17.10;99.60;;;;;;5114162;28;20198;-60
2022/05/03 09:42:09;;;;;;;5.60;4.68;;;17.10;99.90;;;;;;5114619;28;20575;-60
2022/05/03 09:44:55;;;;;;;6.78;4.57;;;17.00;99.90;;;;;;5114313;28;20169;-60
2022/05/03 09:47:25;;;;;;;6.38;4.90;;;17.10;99.90;;;;;;5114194;28;20638;-60
2022/05/03 09:49:52;;;;;;;5.45;3.95;;;16.90;99.70;;;;;;5114444;28;20196;-60
2022/05/03 09:52:32;;;;;;;4.85;3.80;;;16.90;99.90;;;;;;5114228;28;20239;-61
2022/05/03 09:55:07;;;;;;;5.88;4.00;;;16.70;99.60;;;;;;5114258;28;20173;-60
2022/05/03 09:57:36;;;;;;;5.40;4.03;;;16.80;99.90;;;;;;5114106;28;20255;-60
2022/05/03 10:00:05;;;;;;;5.32;4.00;;;17.10;99.90;;;;;;5113934;28;20166;-60
2022/05/03 10:02:32;;;;;;;6.72;4.60;;;17.30;99.70;;;;;;5113916;28;20618;-60
2022/05/03 10:04:58;;;;;;;5.40;3.72;;;17.50;99.30;;;;;;5113831;28;20208;-61
2022/05/03 10:07:25;;;;;;;5.55;4.25;;;17.60;99.00;;;;;;5113913;28;20169;-60
2022/05/03 10:09:51;;;;;;;4.93;4.13;;;17.40;99.20;;;;;;5113854;28;20173;-61
2022/05/03 10:12:18;;;;;;;6.10;4.72;;;17.00;99.30;;;;;;5113799;28;20263;-61
2022/05/03 10:14:45;;;;;;;4.20;3.50;;;17.20;99.90;;;;;;5113792;28;20184;-61
2022/05/03 10:20:40;;;;;;;5.20;3.90;;;17.50;99.00;;;;;;5113486;28;20600;-61
2022/05/03 10:23:28;;;;;;;6.47;3.88;;;17.70;98.60;;;;;;5113475;28;20212;-60
2022/05/03 10:25:58;;;;;;;4.63;3.78;;;18.00;99.20;;;;;;5113755;28;20178;-61
2022/05/03 10:28:25;;;;;;;5.68;2.92;;;17.50;97.50;;;;;;5113622;28;20623;-60
2022/05/03 10:31:05;;;;;;;5.97;4.13;;;16.80;98.80;;;;;;5113602;28;20275;-61
2022/05/03 10:33:31;;;;;;;5.65;4.28;;;16.80;99.50;;;;;;5113442;28;20724;-60
2022/05/03 10:35:59;;;;;;;6.95;4.35;;;16.70;99.80;;;;;;5113559;28;20185;-60
2022/05/03 10:38:46;;;;;;;5.18;4.10;;;17.00;99.90;;;;;;5113623;28;20204;-61
2022/05/03 10:41:22;;;;;;;5.18;4.22;;;17.10;99.20;;;;;;5113580;28;20284;-60
2022/05/03 10:43:48;;;;;;;6.68;4.40;;;17.50;99.90;;;;;;5113530;28;20200;-61
2022/05/03 10:46:19;;;;;;;4.95;4.00;;;17.90;99.90;;;;;;5113643;28;20203;-61
2022/05/03 10:49:05;;;;;;;6.85;4.75;;;18.00;99.10;;;;;;5113439;28;20581;-60
2022/05/03 10:51:31;;;;;;;6.10;4.85;;;17.60;98.60;;;;;;5113461;28;20204;-61
2022/05/03 10:54:00;;;;;;;6.53;4.88;;;17.30;98.90;;;;;;5112472;28;20216;-60
2022/05/03 10:56:26;;;;;;;5.93;4.43;;;17.50;99.60;;;;;;5113510;28;20180;-60
2022/05/03 10:59:15;;;;;;;8.40;4.55;;;18.00;99.70;;;;;;5113549;28;20244;-61
2022/05/03 11:02:06;;;;;;;6.45;4.50;;;17.80;98.90;;;;;;5113374;28;20292;-60
2022/05/03 11:04:35;;;;;;;6.32;4.88;;;17.30;98.30;;;;;;5111839;28;20199;-61
2022/05/03 11:07:01;;;;;;;4.88;4.35;;;16.90;98.90;;;;;;5113435;28;20630;-61
2022/05/03 11:09:33;;;;;;;6.00;4.47;;;16.80;99.50;;;;;;5113316;28;20268;-61
2022/05/03 11:12:02;;;;;;;7.20;4.50;;;17.00;99.90;;;;;;5113325;28;20287;-60
2022/05/03 11:14:27;;;;;;;7.63;5.07;;;17.50;99.90;;;;;;5113188;28;20166;-61
2022/05/03 11:17:05;;;;;;;8.80;6.40;;;17.90;99.90;;;;;;5113167;28;20218;-61
2022/05/03 11:19:35;;;;;;;7.22;5.68;;;17.70;99.80;;;;;;5113366;28;20279;-61
2022/05/03 11:22:08;;;;;;;6.70;5.03;;;17.30;99.50;;;;;;5113270;28;20169;-60
2022/05/03 11:24:33;;;;;;;6.97;5.22;;;17.20;99.90;;;;;;5113238;28;20530;-61
2022/05/03 11:27:05;;;;;;;6.38;4.63;;;17.20;99.90;;;;;;5113143;28;20257;-60
2022/05/03 11:30:00;;;;;;;5.72;4.53;;;17.40;99.90;;;;;;5112952;28;20576;-61
2022/05/03 11:32:28;;;;;;;6.43;4.97;;;17.80;99.40;;;;;;5107462;28;20216;-61
2022/05/03 11:35:06;;;;;;;7.72;5.15;;;18.00;99.40;;;;;;5116760;28;20189;-61
2022/05/03 11:37:33;;;;;;;7.00;5.45;;;18.10;99.30;;;;;;5116832;28;20200;-61
2022/05/03 11:40:09;;;;;;;7.03;5.32;;;17.80;99.50;;;;;;5116541;28;20556;-60
2022/05/03 11:42:39;;;;;;;8.18;5.40;;;17.90;99.20;;;;;;5116742;28;20188;-61
2022/05/03 11:45:06;;;;;;;7.55;5.60;;;17.90;99.90;;;;;;5116793;28;20212;-61
2022/05/03 11:47:37;;;;;;;8.27;5.45;;;18.30;99.90;;;;;;5116662;27;20170;-61
2022/05/03 11:50:04;;;;;;;6.55;4.72;;;18.70;99.40;;;;;;5116491;28;20626;-61
2022/05/03 11:57:59;;;;;;;6.07;4.70;;;18.60;98.80;;;;;;5116718;28;20195;-61
2022/05/03 12:00:25;;;;;;;8.27;6.20;;;18.20;98.40;;;;;;5116282;28;20165;-61
2022/05/03 12:02:51;;;;;;;8.07;4.85;;;17.80;98.90;;;;;;5116194;28;20177;-61
2022/05/03 12:05:21;;;;;;;7.22;5.85;;;17.70;99.90;;;;;;5114714;28;20200;-61
2022/05/03 12:07:49;;;;;;;6.30;5.65;;;17.80;99.60;;;;;;5116274;28;20222;-61
2022/05/03 12:10:40;;;;;;;8.40;6.53;;;17.60;99.90;;;;;;5116226;28;20241;-61
2022/05/03 12:13:17;;;;;;;8.52;5.88;;;17.90;99.90;;;;;;5116041;28;20229;-61
2022/05/03 12:15:48;;;;;;;7.85;5.80;;;18.30;99.50;;;;;;5116218;28;20265;-60
2022/05/03 12:18:28;;;;;;;6.43;5.25;;;18.60;99.80;;;;;;5115942;28;20173;-61
2022/05/03 12:21:11;;;;;;;7.25;4.93;;;18.20;99.60;;;;;;5115920;28;20214;-61
2022/05/03 12:23:38;;;;;;;6.47;4.88;;;18.10;99.90;;;;;;5115836;28;20173;-61
2022/05/03 12:26:35;;;;;;;6.47;5.18;;;18.00;99.90;;;;;;5115954;28;20169;-61
2022/05/03 12:29:02;;;;;;;6.13;4.35;;;17.60;99.90;;;;;;5111274;28;20185;-61
2022/05/03 12:31:36;;;;;;;7.25;4.97;;;17.40;99.90;;;;;;5115648;28;20161;-61
2022/05/03 12:34:13;;;;;;;6.45;4.63;;;17.10;99.90;;;;;;5115464;28;20212;-60
2022/05/03 12:36:40;;;;;;;6.68;4.50;;;17.00;99.90;;;;;;5115641;28;20173;-61
2022/05/03 12:39:23;;;;;;;5.72;4.07;;;17.00;99.90;;;;;;5115632;28;20181;-61
2022/05/03 12:42:00;;;;;;;6.22;4.50;;;17.00;99.90;;;;;;5115558;28;20703;-61
2022/05/03 12:44:27;;;;;;;5.82;4.22;;;17.10;99.90;;;;;;5114919;28;20577;-61
2022/05/03 12:47:04;;;;;;;5.38;3.80;;;17.30;99.90;;;;;;5115553;28;20199;-61
2022/05/03 12:49:30;;;;;;;5.95;4.07;;;17.50;99.90;;;;;;5115479;28;20173;-61
2022/05/03 12:51:56;;;;;;;6.20;4.40;;;17.50;99.90;;;;;;5115341;28;20201;-61
2022/05/03 12:54:22;;;;;;;5.00;3.92;;;17.70;99.90;;;;;;5115240;28;20260;-61
2022/05/03 12:59:31;;;;;;;5.05;3.33;;;17.40;99.80;;;;;;5115364;28;20230;-61
2022/05/03 13:01:57;;;;;;;5.57;3.85;;;17.50;99.90;;;;;;5115211;28;20177;-60
2022/05/03 13:04:28;;;;;;;6.65;3.85;;;17.50;99.90;;;;;;5114974;28;20223;-61
2022/05/03 13:06:54;;;;;;;6.70;4.85;;;17.60;99.90;;;;;;5114914;28;20642;-61
2022/05/03 13:09:21;;;;;;;5.28;3.97;;;17.50;99.90;;;;;;5114855;28;20173;-61
2022/05/03 13:11:46;;;;;;;6.40;4.28;;;17.40;99.90;;;;;;5114662;28;20554;-61
2022/05/03 13:14:13;;;;;;;5.82;4.15;;;17.30;99.90;;;;;;5114975;28;20177;-61
2022/05/03 13:16:40;;;;;;;5.15;3.17;;;17.40;99.90;;;;;;5113798;28;20260;-61
2022/05/03 13:19:06;;;;;;;4.78;3.97;;;17.30;99.90;;;;;;5113575;28;20197;-61
2022/05/03 13:21:36;;;;;;;5.65;4.38;;;17.20;99.90;;;;;;5114617;28;20230;-61
2022/05/03 13:24:06;;;;;;;6.72;4.88;;;17.10;99.90;;;;;;5114656;28;20184;-61
2022/05/03 13:26:33;;;;;;;7.38;4.90;;;17.20;99.90;;;;;;5114730;28;20252;-61
2022/05/03 13:29:04;;;;;;;6.00;4.38;;;17.20;99.90;;;;;;5114739;28;20184;-61
2022/05/03 13:31:30;;;;;;;6.35;4.32;;;17.20;99.90;;;;;;5114438;28;20170;-61
2022/05/03 13:33:57;;;;;;;7.03;4.90;;;17.10;99.90;;;;;;5114578;28;20178;-61
2022/05/03 13:41:51;;;;;;;8.57;5.78;;;17.20;99.90;;;;;;5114707;28;20656;-61
2022/05/03 13:44:17;;;;;;;7.95;5.47;;;17.10;99.90;;;;;;5114339;28;20181;-61
2022/05/03 13:46:42;;;;;;;9.63;5.00;;;17.10;99.90;;;;;;5114247;28;20252;-61
2022/05/03 13:49:08;;;;;;;9.05;5.30;;;17.10;99.90;;;;;;5114182;28;20170;-61
2022/05/03 13:51:34;;;;;;;9.10;5.70;;;17.00;99.90;;;;;;5114522;28;20197;-60
2022/05/03 13:53:59;;;;;;;9.52;6.35;;;17.00;99.90;;;;;;5112973;28;20181;-61
2022/05/03 13:56:25;;;;;;;10.07;6.50;;;16.90;99.90;;;;;;5113413;28;20264;-61